Time;durP1;ratioP1;P1;durP2;ratioP2;P2;SDS_P1;SDS_P2;PMS_P1;PMS_P2;Temp;Humidity;BMP_temperature;BMP_pressure;BME280_temperature;BME280_humidity;BME280_pressure;Samples;Min_cycle;Max_cycle;Signal;HPM_P1;HPM_P2
2022/09/19 00:01:10;;;;;;;2.28;1.50;;;;;;;6.13;88.91;94729.25;5130770;27;20288;-73
2022/09/19 00:03:37;;;;;;;2.45;1.42;;;;;;;6.07;88.91;94731.22;5130778;27;20229;-74
2022/09/19 00:06:04;;;;;;;1.67;1.13;;;;;;;6.10;89.04;94729.03;5130001;27;20264;-72
2022/09/19 00:08:31;;;;;;;1.95;1.55;;;;;;;6.14;89.51;94720.09;5130548;27;20625;-73
2022/09/19 00:11:02;;;;;;;2.35;1.40;;;;;;;6.13;89.27;94713.13;5130026;27;20201;-73
2022/09/19 00:13:29;;;;;;;2.83;2.00;;;;;;;6.11;88.98;94720.69;5130922;27;20201;-74
2022/09/19 00:15:57;;;;;;;7.28;2.30;;;;;;;6.15;88.69;94712.81;5131561;27;20205;-73
2022/09/19 00:18:24;;;;;;;1.98;1.50;;;;;;;6.08;88.99;94713.19;5131220;27;20212;-74
2022/09/19 00:20:51;;;;;;;3.50;1.40;;;;;;;5.99;89.25;94712.31;5131588;27;20307;-74
2022/09/19 00:26:05;;;;;;;2.78;1.67;;;;;;;5.97;90.17;94709.09;5118688;27;20640;-73
2022/09/19 00:28:33;;;;;;;1.73;1.45;;;;;;;5.93;91.10;94708.88;5131608;27;20185;-72
2022/09/19 00:31:01;;;;;;;2.03;1.40;;;;;;;6.02;91.37;94706.31;5131667;27;20200;-73
2022/09/19 00:33:31;;;;;;;4.35;1.80;;;;;;;6.01;91.45;94707.44;5131463;27;20200;-74
2022/09/19 00:35:59;;;;;;;4.28;1.73;;;;;;;6.17;91.03;94707.91;5131157;27;20849;-74
2022/09/19 00:38:27;;;;;;;1.95;1.60;;;;;;;6.15;90.64;94702.84;5131247;27;20688;-75
2022/09/19 00:40:55;;;;;;;2.92;1.60;;;;;;;6.23;90.38;94706.75;5130961;27;20265;-73
2022/09/19 00:43:25;;;;;;;1.58;1.30;;;;;;;6.03;90.09;94710.59;5131313;27;20241;-74
2022/09/19 00:45:53;;;;;;;2.20;1.60;;;;;;;5.79;92.80;94713.41;5131641;27;20200;-74
2022/09/19 00:48:23;;;;;;;2.50;2.00;;;;;;;5.67;93.88;94719.25;5130897;27;20651;-73
2022/09/19 00:50:55;;;;;;;3.20;2.83;;;;;;;5.70;94.22;94721.34;5130824;27;20201;-73
2022/09/19 00:53:25;;;;;;;3.30;2.17;;;;;;;5.78;94.02;94721.75;5130967;27;20189;-72
2022/09/19 00:55:55;;;;;;;4.40;2.70;;;;;;;5.74;94.08;94715.41;5130535;27;20204;-73
2022/09/19 00:58:28;;;;;;;5.00;2.88;;;;;;;5.77;94.06;94715.59;5129758;27;20466;-73
2022/09/19 01:00:55;;;;;;;3.08;2.50;;;;;;;5.75;93.90;94716.97;5130497;27;20200;-74
2022/09/19 01:03:25;;;;;;;3.67;2.70;;;;;;;5.87;93.89;94714.63;5130374;27;20235;-74
2022/09/19 01:06:06;;;;;;;3.38;2.80;;;;;;;5.91;93.58;94710.28;5130388;27;20280;-74
2022/09/19 01:08:46;;;;;;;3.58;2.60;;;;;;;5.99;93.29;94702.34;5130414;27;20189;-74
2022/09/19 01:11:29;;;;;;;3.35;2.60;;;;;;;5.94;92.83;94694.34;5130545;27;20296;-74
2022/09/19 01:14:03;;;;;;;2.88;2.33;;;;;;;5.89;92.28;94705.19;5130479;27;20189;-73
2022/09/19 01:16:37;;;;;;;3.88;2.50;;;;;;;5.94;91.83;94715.06;5130640;27;20269;-74
2022/09/19 01:19:28;;;;;;;3.13;2.53;;;;;;;5.92;91.48;94717.25;5130310;27;20288;-73
2022/09/19 01:22:05;;;;;;;1.70;1.50;;;;;;;5.84;91.86;94705.28;5130279;27;20190;-73
2022/09/19 01:24:56;;;;;;;1.65;1.52;;;;;;;5.87;91.91;94714.63;5130460;27;20244;-73
2022/09/19 01:27:38;;;;;;;3.58;1.58;;;;;;;5.70;91.86;94705.25;5130323;28;20246;-73
2022/09/19 01:30:09;;;;;;;2.75;1.60;;;;;;;5.73;91.94;94703.84;5130523;28;20262;-73
2022/09/19 01:32:42;;;;;;;1.73;1.45;;;;;;;5.72;91.95;94703.06;5130852;28;20197;-75
2022/09/19 01:35:13;;;;;;;1.90;1.50;;;;;;;5.67;91.78;94700.44;5131184;27;20251;-74
2022/09/19 01:37:44;;;;;;;1.38;1.20;;;;;;;5.60;91.74;94697.31;5130312;27;20305;-73
2022/09/19 01:40:13;;;;;;;2.15;1.50;;;;;;;5.65;92.75;94697.25;5130658;28;20262;-73
2022/09/19 01:42:54;;;;;;;3.15;1.83;;;;;;;5.66;93.12;94698.03;5130485;28;20197;-73
2022/09/19 01:45:24;;;;;;;2.30;1.67;;;;;;;5.74;93.25;94689.28;5116510;28;20262;-73
2022/09/19 01:48:06;;;;;;;2.90;1.92;;;;;;;5.77;92.98;94685.22;5129718;27;20201;-73
2022/09/19 01:50:46;;;;;;;1.77;1.42;;;;;;;5.75;91.86;94695.47;5130271;28;20675;-73
2022/09/19 01:53:22;;;;;;;3.10;1.40;;;;;;;5.74;91.69;94693.91;5130769;28;20280;-73
2022/09/19 01:55:58;;;;;;;2.50;1.40;;;;;;;5.50;91.13;94689.44;5131305;28;20189;-75
2022/09/19 01:58:31;;;;;;;4.78;2.50;;;;;;;5.33;92.47;94681.13;5119895;28;20216;-73
2022/09/19 02:01:06;;;;;;;8.43;1.90;;;;;;;5.31;92.28;94696.75;5134188;27;20204;-74
2022/09/19 02:03:46;;;;;;;2.65;1.73;;;;;;;5.21;93.52;94691.50;5131882;27;20216;-74
2022/09/19 02:06:19;;;;;;;3.63;1.88;;;;;;;5.36;92.85;94688.59;5135866;28;20254;-75
2022/09/19 02:08:50;;;;;;;1.63;1.40;;;;;;;5.45;91.09;94692.22;5139544;27;20532;-75
2022/09/19 02:11:21;;;;;;;3.97;2.50;;;;;;;5.46;90.54;94688.44;5135175;27;20249;-74
2022/09/19 02:13:51;;;;;;;3.60;2.30;;;;;;;5.46;90.83;94688.44;5133767;27;20207;-74
2022/09/19 02:16:30;;;;;;;3.47;2.45;;;;;;;5.41;91.14;94685.84;5120324;27;20694;-74
2022/09/19 02:19:00;;;;;;;3.92;2.45;;;;;;;5.24;91.18;94685.56;5133025;27;20559;-74
2022/09/19 02:21:36;;;;;;;4.10;2.50;;;;;;;5.15;91.93;94687.31;5133995;27;20614;-74
2022/09/19 02:24:07;;;;;;;3.47;2.58;;;;;;;5.12;92.59;94683.34;5133307;27;20228;-72
2022/09/19 02:26:37;;;;;;;1.40;1.20;;;;;;;5.17;92.91;94675.22;5133671;27;20192;-74
2022/09/19 02:29:08;;;;;;;2.53;1.90;;;;;;;5.21;93.23;94675.41;5133417;27;20632;-74
2022/09/19 02:31:37;;;;;;;4.75;2.00;;;;;;;5.28;93.10;94681.22;5133316;27;20589;-74
2022/09/19 02:34:07;;;;;;;3.17;1.92;;;;;;;5.39;92.79;94674.59;5133771;27;20243;-73
2022/09/19 02:36:42;;;;;;;9.10;1.75;;;;;;;5.44;91.90;94666.47;5133702;27;20216;-74
2022/09/19 02:39:16;;;;;;;1.92;1.50;;;;;;;5.34;92.09;94664.72;5133836;27;20314;-74
2022/09/19 02:41:52;;;;;;;1.88;1.60;;;;;;;5.29;92.24;94672.88;5133703;27;20193;-74
2022/09/19 02:44:23;;;;;;;2.20;1.75;;;;;;;5.34;92.14;94669.28;5133777;27;20279;-73
2022/09/19 02:47:01;;;;;;;2.22;1.77;;;;;;;5.30;92.51;94668.31;5133324;27;20196;-74
2022/09/19 02:49:38;;;;;;;3.10;2.10;;;;;;;5.37;92.21;94679.44;5132622;27;20703;-74
2022/09/19 02:52:10;;;;;;;7.50;2.17;;;;;;;5.21;93.01;94680.78;5132454;27;20192;-74
2022/09/19 02:54:41;;;;;;;4.93;1.65;;;;;;;5.14;93.88;94675.00;5132506;27;20216;-74
2022/09/19 02:57:13;;;;;;;2.75;1.73;;;;;;;5.14;94.04;94669.63;5132356;27;20221;-74
2022/09/19 02:59:44;;;;;;;5.47;2.65;;;;;;;5.12;94.68;94677.16;5132651;27;20203;-74
2022/09/19 03:02:18;;;;;;;2.67;1.80;;;;;;;5.11;95.11;94681.75;5131618;27;20205;-75
2022/09/19 03:04:49;;;;;;;1.92;1.73;;;;;;;5.17;95.24;94675.22;5132953;27;20333;-74
2022/09/19 03:07:24;;;;;;;2.20;1.92;;;;;;;5.26;95.26;94669.97;5133068;27;20269;-74
2022/09/19 03:09:57;;;;;;;4.40;2.15;;;;;;;5.36;94.71;94677.84;5132996;27;20209;-74
2022/09/19 03:12:29;;;;;;;2.58;1.75;;;;;;;5.36;94.39;94678.66;5132709;27;20196;-73
2022/09/19 03:14:58;;;;;;;2.53;1.77;;;;;;;5.33;93.98;94678.44;5132864;27;20555;-73
2022/09/19 03:17:32;;;;;;;4.82;1.67;;;;;;;5.39;93.92;94671.91;5132822;27;20321;-74
2022/09/19 03:19:59;;;;;;;3.53;2.10;;;;;;;5.45;93.55;94680.69;5131728;27;20198;-74
2022/09/19 03:22:26;;;;;;;3.00;1.88;;;;;;;5.42;93.20;94676.69;5132614;27;20257;-73
2022/09/19 03:24:53;;;;;;;2.25;1.75;;;;;;;5.33;92.82;94678.44;5132354;27;20308;-74
2022/09/19 03:27:20;;;;;;;16.58;7.30;;;;;;;5.22;92.96;94674.31;5132753;27;20197;-74
2022/09/19 03:29:47;;;;;;;4.68;2.55;;;;;;;5.13;93.38;94674.19;5132653;27;20307;-73
2022/09/19 03:32:14;;;;;;;2.88;1.92;;;;;;;5.12;93.93;94687.91;5132386;27;20296;-73
2022/09/19 03:34:43;;;;;;;6.63;3.53;;;;;;;5.11;94.03;94679.06;5132236;27;20423;-73
2022/09/19 03:37:11;;;;;;;4.78;2.88;;;;;;;5.11;94.13;94678.25;5132378;27;20730;-72
2022/09/19 03:39:38;;;;;;;5.43;2.92;;;;;;;5.12;93.56;94682.53;5132529;27;20712;-73
2022/09/19 03:42:05;;;;;;;3.25;2.30;;;;;;;5.09;93.60;94677.75;5132226;27;20605;-73
2022/09/19 03:44:32;;;;;;;2.60;1.85;;;;;;;5.09;93.19;94672.38;5132432;27;20205;-72
2022/09/19 03:46:58;;;;;;;5.28;2.38;;;;;;;5.16;93.29;94662.06;5132316;27;20197;-73
2022/09/19 03:49:25;;;;;;;4.75;3.55;;;;;;;5.04;93.80;94653.69;5131668;27;20292;-73
2022/09/19 03:51:53;;;;;;;3.67;2.22;;;;;;;5.00;94.83;94656.94;5131758;27;20246;-72
2022/09/19 03:54:20;;;;;;;3.38;2.00;;;;;;;5.03;94.69;94655.56;5132117;27;20193;-72
2022/09/19 03:56:47;;;;;;;7.13;3.58;;;;;;;5.21;94.88;94652.03;5131747;27;20201;-72
2022/09/19 03:59:14;;;;;;;5.40;3.88;;;;;;;5.09;94.78;94645.53;5131791;27;20568;-70
2022/09/19 04:01:41;;;;;;;6.07;3.95;;;;;;;5.08;95.74;94649.28;5132026;27;20204;-72
2022/09/19 04:04:07;;;;;;;6.40;3.55;;;;;;;5.14;95.80;94648.94;5131876;27;20281;-70
2022/09/19 04:06:34;;;;;;;6.63;3.97;;;;;;;5.07;95.96;94645.00;5132025;27;20277;-72
2022/09/19 04:09:03;;;;;;;6.13;3.60;;;;;;;5.19;95.89;94646.19;5131805;27;20664;-73
2022/09/19 04:11:29;;;;;;;7.32;3.95;;;;;;;5.32;95.88;94647.31;5131565;27;20201;-72
2022/09/19 04:13:56;;;;;;;6.75;3.72;;;;;;;5.27;95.22;94647.41;5131586;27;20904;-73
2022/09/19 04:16:24;;;;;;;5.07;3.35;;;;;;;5.20;94.87;94649.63;5131845;27;20201;-73
2022/09/19 04:18:52;;;;;;;6.05;3.70;;;;;;;5.29;94.84;94655.97;5131872;27;20309;-72
2022/09/19 04:21:19;;;;;;;4.93;3.80;;;;;;;5.33;94.67;94641.63;5131489;27;20193;-73
2022/09/19 04:23:46;;;;;;;4.07;2.45;;;;;;;5.50;94.16;94641.09;5130510;27;20217;-73
2022/09/19 04:26:15;;;;;;;2.13;1.70;;;;;;;5.48;93.07;94656.69;5130595;27;20204;-73
2022/09/19 04:28:42;;;;;;;5.03;1.85;;;;;;;5.51;92.54;94653.44;5130826;27;20204;-73
2022/09/19 04:31:12;;;;;;;3.13;2.05;;;;;;;6.60;92.06;94646.53;5125681;27;20980;-74
2022/09/19 04:33:39;;;;;;;6.00;2.63;;;;;;;7.88;89.12;94635.13;5129283;27;20219;-74
2022/09/19 04:36:08;;;;;;;4.78;2.67;;;;;;;9.05;79.95;94632.59;5130408;27;20735;-74
2022/09/19 04:38:36;;;;;;;14.50;5.20;;;;;;;9.83;78.37;94627.91;5130756;27;20233;-74
2022/09/19 04:41:03;;;;;;;6.10;3.03;;;;;;;11.00;74.22;94612.84;5130457;27;20257;-74
2022/09/19 04:43:32;;;;;;;4.53;2.45;;;;;;;12.05;70.63;94617.78;5130237;27;20212;-72
2022/09/19 04:45:59;;;;;;;3.25;2.15;;;;;;;12.38;69.48;94611.50;5122468;27;20233;-74
2022/09/19 04:48:26;;;;;;;2.38;2.17;;;;;;;13.31;66.53;94615.94;5128612;27;20254;-73
2022/09/19 04:50:54;;;;;;;4.45;2.50;;;;;;;13.45;63.04;94613.63;5130020;27;20256;-73
2022/09/19 04:53:23;;;;;;;5.70;2.22;;;;;;;14.72;60.17;94604.47;5129426;27;20215;-74
2022/09/19 04:55:52;;;;;;;3.17;2.15;;;;;;;15.46;58.97;94597.13;5129561;27;20205;-74
2022/09/19 04:58:19;;;;;;;2.47;1.83;;;;;;;15.85;55.91;94594.44;5127844;27;20296;-75
2022/09/19 05:00:53;;;;;;;5.72;1.80;;;;;;;15.95;55.65;94591.09;5130191;27;20609;-74
2022/09/19 05:03:20;;;;;;;5.85;2.72;;;;;;;16.07;53.96;94599.13;5129813;27;20570;-73
2022/09/19 05:05:51;;;;;;;6.82;2.58;;;;;;;16.45;53.13;94598.22;5129827;27;20704;-72
2022/09/19 05:08:20;;;;;;;4.72;2.50;;;;;;;16.96;53.81;94595.91;5130277;27;21058;-75
2022/09/19 05:10:48;;;;;;;4.63;1.98;;;;;;;16.62;53.91;94602.41;5130798;27;20603;-73
2022/09/19 05:13:15;;;;;;;3.38;2.13;;;;;;;17.12;52.88;94597.72;5130351;27;20201;-74
2022/09/19 05:15:45;;;;;;;3.25;2.08;;;;;;;17.52;49.95;94589.66;5130141;27;20208;-73
2022/09/19 05:18:13;;;;;;;6.72;2.50;;;;;;;17.45;51.46;94589.56;5130255;27;20228;-72
2022/09/19 05:20:40;;;;;;;7.13;3.13;;;;;;;17.87;50.53;94591.28;5130199;27;20284;-72
2022/09/19 05:23:07;;;;;;;8.32;2.85;;;;;;;16.76;50.55;94597.19;5129848;27;20216;-74
2022/09/19 05:25:37;;;;;;;11.05;2.03;;;;;;;16.19;51.31;94607.16;5129815;28;20281;-73
2022/09/19 05:28:06;;;;;;;4.75;2.90;;;;;;;14.73;56.25;94616.97;5130441;28;20201;-73
2022/09/19 05:30:33;;;;;;;5.75;2.38;;;;;;;15.39;55.82;94607.91;5129693;28;20293;-73
2022/09/19 05:33:02;;;;;;;5.75;2.83;;;;;;;15.18;54.18;94612.91;5129640;28;20197;-74
2022/09/19 05:35:30;;;;;;;6.75;3.20;;;;;;;15.84;54.33;94610.03;5128697;28;20204;-72
2022/09/19 05:37:58;;;;;;;9.23;3.13;;;;;;;15.90;51.70;94614.03;5129787;28;20233;-73
2022/09/19 05:40:26;;;;;;;4.97;2.40;;;;;;;16.54;50.06;94617.09;5129578;28;20209;-73
2022/09/19 05:43:00;;;;;;;3.22;2.05;;;;;;;16.96;49.02;94617.81;5130311;27;20247;-71
2022/09/19 05:45:28;;;;;;;1.90;1.65;;;;;;;17.56;47.43;94612.41;5133424;27;20288;-72
2022/09/19 05:48:00;;;;;;;3.65;1.80;;;;;;;18.30;43.85;94612.50;5133896;27;20265;-72
2022/09/19 05:50:26;;;;;;;2.40;1.27;;;;;;;18.08;43.98;94607.94;5092469;28;20206;-75
2022/09/19 05:55:39;;;;;;;1.20;1.10;;;;;;;18.16;42.60;94609.59;5092044;28;20228;-74
2022/09/19 05:58:07;;;;;;;5.10;1.48;;;;;;;17.46;44.13;94606.78;5091478;28;20265;-73
2022/09/19 06:00:34;;;;;;;1.33;1.13;;;;;;;18.50;43.35;94598.56;5091639;28;20210;-72
2022/09/19 06:03:02;;;;;;;4.97;1.67;;;;;;;18.82;41.71;94599.66;5091954;28;20589;-72
2022/09/19 06:05:32;;;;;;;3.58;1.80;;;;;;;18.33;42.37;94600.75;5080432;28;20215;-71
2022/09/19 06:08:01;;;;;;;2.70;1.35;;;;;;;18.79;42.13;94595.69;5091413;28;20198;-74
2022/09/19 06:10:28;;;;;;;1.88;1.38;;;;;;;18.85;42.15;94598.91;5092480;28;20638;-74
2022/09/19 06:12:56;;;;;;;3.22;1.80;;;;;;;19.21;41.26;94599.13;5092429;28;20293;-71
2022/09/19 06:15:23;;;;;;;2.88;1.23;;;;;;;19.09;41.02;94592.78;5092118;28;20255;-72
2022/09/19 06:17:54;;;;;;;8.43;2.00;;;;;;;18.69;41.52;94609.34;5092124;28;20350;-72
2022/09/19 06:20:21;;;;;;;2.50;1.58;;;;;;;18.06;43.53;94611.06;5092459;28;20202;-74
2022/09/19 06:22:50;;;;;;;2.90;1.92;;;;;;;17.85;45.32;94607.28;5092367;28;20225;-74
2022/09/19 06:25:19;;;;;;;3.83;2.30;;;;;;;18.16;44.22;94612.34;5092038;28;20251;-74
2022/09/19 06:27:53;;;;;;;3.33;2.20;;;;;;;18.84;43.33;94608.28;5091621;28;20259;-73
2022/09/19 06:30:20;;;;;;;3.97;2.15;;;;;;;18.88;42.75;94609.09;5091524;28;20202;-72
2022/09/19 06:32:47;;;;;;;3.00;2.13;;;;;;;18.81;42.77;94609.06;5091548;28;20217;-71
2022/09/19 06:35:14;;;;;;;3.45;2.72;;;;;;;18.51;43.79;94611.09;5091698;28;20714;-74
2022/09/19 06:37:41;;;;;;;3.03;2.00;;;;;;;17.95;44.25;94617.59;5090392;28;20268;-74
2022/09/19 06:40:09;;;;;;;4.38;2.70;;;;;;;17.18;45.35;94623.63;5091544;28;20225;-72
2022/09/19 06:42:37;;;;;;;4.38;2.60;;;;;;;18.13;44.44;94618.59;5092036;28;20260;-73
2022/09/19 06:45:06;;;;;;;3.20;2.30;;;;;;;17.69;44.88;94622.00;5091363;28;20677;-73
2022/09/19 06:47:33;;;;;;;4.55;2.72;;;;;;;19.08;43.25;94602.19;5091950;28;20207;-72
2022/09/19 06:50:00;;;;;;;5.50;3.33;;;;;;;19.27;42.09;94601.13;5125814;27;20680;-72
2022/09/19 06:52:27;;;;;;;4.22;2.80;;;;;;;18.11;44.16;94609.94;5132649;27;20552;-72
2022/09/19 06:54:54;;;;;;;7.07;2.63;;;;;;;18.60;43.14;94611.59;5132435;27;20208;-71
2022/09/19 06:57:21;;;;;;;8.80;2.53;;;;;;;19.01;43.42;94607.63;5132412;27;20205;-71
2022/09/19 06:59:49;;;;;;;3.50;2.42;;;;;;;18.17;43.71;94608.44;5131716;27;20225;-73
2022/09/19 07:02:16;;;;;;;4.53;2.70;;;;;;;17.53;45.57;94610.41;5131738;27;20229;-71
2022/09/19 07:04:43;;;;;;;10.13;2.60;;;;;;;17.43;45.99;94605.56;5132243;27;20581;-74
2022/09/19 07:07:10;;;;;;;5.00;2.80;;;;;;;17.56;46.24;94598.69;5132193;27;20200;-73
2022/09/19 07:09:36;;;;;;;5.35;2.45;;;;;;;17.19;46.79;94601.34;5132243;27;20209;-74
2022/09/19 07:12:03;;;;;;;3.33;2.28;;;;;;;16.71;47.40;94600.22;5132220;27;20728;-74
2022/09/19 07:14:30;;;;;;;2.30;1.70;;;;;;;16.80;47.43;94598.03;5131674;27;20204;-74
2022/09/19 07:16:59;;;;;;;2.78;2.00;;;;;;;16.37;47.30;94596.53;5131879;27;20201;-71
2022/09/19 07:19:25;;;;;;;3.28;1.80;;;;;;;15.23;50.80;94599.00;5131916;27;20243;-71
2022/09/19 07:21:53;;;;;;;2.83;1.80;;;;;;;14.42;52.88;94609.59;5130598;27;20258;-72
2022/09/19 07:24:20;;;;;;;2.58;1.65;;;;;;;15.71;50.17;94599.63;5131496;27;20255;-73
2022/09/19 07:26:46;;;;;;;3.45;1.52;;;;;;;16.53;48.78;94596.41;5131673;27;20306;-73
2022/09/19 07:29:13;;;;;;;4.68;1.85;;;;;;;16.77;48.04;94593.31;5131416;27;20201;-72
2022/09/19 07:31:40;;;;;;;2.08;1.25;;;;;;;15.72;47.64;94593.75;5131238;27;20620;-74
2022/09/19 07:34:08;;;;;;;2.72;1.00;;;;;;;15.05;50.23;94598.59;5130905;27;20260;-72
2022/09/19 07:36:35;;;;;;;3.00;1.40;;;;;;;14.77;49.82;94600.66;5131193;27;20269;-76
2022/09/19 07:39:02;;;;;;;7.80;1.63;;;;;;;15.30;50.72;94599.16;5130475;27;20229;-73
2022/09/19 07:41:28;;;;;;;4.70;1.40;;;;;;;14.89;50.32;94595.94;5130814;27;20258;-74
2022/09/19 07:43:56;;;;;;;5.78;1.77;;;;;;;14.53;51.15;94596.22;5128716;27;20209;-73
2022/09/19 07:46:23;;;;;;;2.42;1.48;;;;;;;14.32;51.86;94598.41;5131079;27;20236;-72
2022/09/19 07:48:53;;;;;;;5.90;1.80;;;;;;;14.73;52.76;94592.44;5130455;27;20229;-71
2022/09/19 07:51:21;;;;;;;1.15;1.00;;;;;;;13.89;53.49;94591.88;5129634;27;20266;-75
2022/09/19 07:53:49;;;;;;;20.23;1.90;;;;;;;13.75;53.54;94592.28;5130951;27;20200;-72
2022/09/19 07:56:16;;;;;;;3.20;1.50;;;;;;;13.73;54.65;94588.31;5131168;27;20204;-72
2022/09/19 07:58:43;;;;;;;1.95;1.65;;;;;;;13.90;55.71;94590.72;5130755;27;20328;-73
2022/09/19 08:01:10;;;;;;;2.70;1.88;;;;;;;14.19;53.23;94587.59;5130318;27;20724;-74
2022/09/19 08:03:36;;;;;;;2.85;1.92;;;;;;;14.02;53.32;94584.41;5131245;27;20353;-72
2022/09/19 08:06:04;;;;;;;4.45;2.00;;;;;;;14.39;52.57;94582.22;5130187;27;20457;-73
2022/09/19 08:08:32;;;;;;;3.45;1.88;;;;;;;14.76;53.07;94574.56;5130073;27;20232;-73
2022/09/19 08:11:01;;;;;;;2.03;1.67;;;;;;;14.68;51.69;94568.16;5130490;27;20545;-72
2022/09/19 08:13:29;;;;;;;3.55;1.70;;;;;;;14.36;51.87;94572.03;5130915;27;20205;-73
2022/09/19 08:15:56;;;;;;;3.17;1.98;;;;;;;14.82;51.08;94557.56;5130540;27;20643;-74
2022/09/19 08:18:26;;;;;;;4.15;1.85;;;;;;;14.37;51.94;94568.16;5130960;27;20224;-74
2022/09/19 08:20:53;;;;;;;2.28;1.65;;;;;;;14.80;49.84;94556.34;5130920;27;20246;-73
2022/09/19 08:23:21;;;;;;;4.32;1.58;;;;;;;15.35;49.68;94547.00;5130912;27;20635;-74
2022/09/19 08:25:50;;;;;;;7.75;1.65;;;;;;;15.70;48.69;94559.81;5130826;27;20295;-72
2022/09/19 08:28:19;;;;;;;3.13;2.08;;;;;;;15.37;49.15;94555.63;5131366;27;20556;-73
2022/09/19 08:30:47;;;;;;;2.47;1.73;;;;;;;15.29;49.80;94559.34;5130720;27;20244;-74
2022/09/19 08:33:15;;;;;;;4.43;2.38;;;;;;;15.45;49.83;94567.44;5129649;27;20197;-74
2022/09/19 08:35:42;;;;;;;1.90;1.60;;;;;;;15.38;50.04;94568.13;5127526;27;20763;-73
2022/09/19 08:38:11;;;;;;;2.50;1.70;;;;;;;15.55;48.78;94556.78;5130225;27;20205;-74
2022/09/19 08:40:53;;;;;;;3.60;1.63;;;;;;;15.64;49.25;94560.09;5130318;27;20363;-73
2022/09/19 08:43:27;;;;;;;5.13;2.38;;;;;;;15.72;48.87;94560.19;5130036;27;20752;-74
2022/09/19 08:46:12;;;;;;;6.50;2.65;;;;;;;15.84;49.67;94551.88;5128676;27;20332;-73
2022/09/19 08:48:48;;;;;;;3.42;2.50;;;;;;;15.62;48.68;94540.53;5129293;27;20233;-73
2022/09/19 08:51:21;;;;;;;4.20;2.30;;;;;;;16.10;48.08;94538.28;5130311;27;20608;-72
2022/09/19 08:53:54;;;;;;;4.53;2.17;;;;;;;16.23;48.63;94541.63;5129111;27;20470;-73
2022/09/19 08:56:23;;;;;;;2.53;1.73;;;;;;;16.00;47.98;94544.34;5130650;27;20197;-72
2022/09/19 08:58:56;;;;;;;5.45;2.03;;;;;;;15.56;50.09;94547.44;5130538;27;20671;-72
2022/09/19 09:01:25;;;;;;;3.05;1.67;;;;;;;15.79;49.57;94543.97;5129223;27;20232;-72
2022/09/19 09:04:07;;;;;;;2.45;1.80;;;;;;;16.19;49.77;94544.28;5129701;27;20207;-73
2022/09/19 09:06:43;;;;;;;3.45;2.13;;;;;;;15.74;50.78;94541.50;5117172;27;20233;-74
2022/09/19 09:09:20;;;;;;;7.32;2.60;;;;;;;15.58;51.09;94539.66;5130046;27;20197;-72
2022/09/19 09:11:58;;;;;;;3.85;1.88;;;;;;;15.34;50.13;94545.41;5130402;27;20197;-72
2022/09/19 09:14:30;;;;;;;4.97;2.30;;;;;;;15.60;48.92;94534.63;5130576;27;20416;-72
2022/09/19 09:17:11;;;;;;;2.17;1.80;;;;;;;15.91;48.14;94538.31;5130293;27;20189;-72
2022/09/19 09:20:04;;;;;;;2.65;1.80;;;;;;;15.95;48.34;94533.72;5118284;27;20269;-73
2022/09/19 09:22:34;;;;;;;3.95;1.38;;;;;;;15.99;46.37;94534.56;5130017;27;20225;-71
2022/09/19 09:25:09;;;;;;;3.35;1.60;;;;;;;15.81;47.92;94515.13;5130316;28;20209;-71
2022/09/19 09:27:47;;;;;;;3.33;1.20;;;;;;;16.18;47.55;94518.09;5123482;28;20208;-73
2022/09/19 09:30:19;;;;;;;4.53;1.40;;;;;;;16.35;42.81;94512.16;5130250;28;20249;-73
2022/09/19 09:32:51;;;;;;;3.20;1.63;;;;;;;16.66;42.24;94493.88;5130160;28;20211;-73
2022/09/19 09:35:28;;;;;;;1.92;1.60;;;;;;;16.82;45.22;94499.16;5129826;28;20200;-71
2022/09/19 09:38:02;;;;;;;4.35;1.90;;;;;;;16.59;44.69;94489.06;5129419;28;20594;-73
2022/09/19 09:43:41;;;;;;;3.08;1.55;;;;;;;16.60;42.77;94471.50;5129796;28;20250;-74
2022/09/19 09:46:13;;;;;;;3.33;1.73;;;;;;;16.47;42.47;94485.75;5130275;28;20193;-72
2022/09/19 09:48:40;;;;;;;3.95;1.60;;;;;;;16.59;41.65;94471.84;5117259;28;20233;-73
2022/09/19 09:51:23;;;;;;;2.38;1.45;;;;;;;17.00;41.78;94476.34;5129620;28;20609;-73
2022/09/19 09:56:14;;;;;;;2.15;0.90;;;;;;;17.00;38.73;94481.81;5129604;28;20232;-74
2022/09/19 09:57:02;;;;;;;3.17;1.60;;;;;;;17.21;39.81;94469.56;5118208;28;20209;-74
2022/09/19 10:05:25;;;;;;;4.00;1.58;;;;;;;16.90;41.94;94466.06;5129151;28;20212;-74
2022/09/19 10:08:01;;;;;;;6.38;1.20;;;;;;;17.42;43.27;94459.66;5129627;28;20214;-74
2022/09/19 10:10:32;;;;;;;2.35;1.10;;;;;;;17.61;41.21;94461.41;5128773;28;20208;-73
2022/09/19 10:13:07;;;;;;;2.13;1.42;;;;;;;17.12;41.24;94460.84;5128934;28;20201;-73
2022/09/19 10:15:40;;;;;;;2.88;1.50;;;;;;;17.17;41.51;94461.31;5129538;28;20205;-73
2022/09/19 10:18:09;;;;;;;2.03;1.30;;;;;;;17.23;40.76;94465.28;5129798;28;20297;-73
2022/09/19 10:20:39;;;;;;;2.42;1.40;;;;;;;17.56;40.36;94453.53;5128946;28;20281;-74
2022/09/19 10:23:14;;;;;;;5.00;1.42;;;;;;;17.69;41.52;94457.59;5129675;27;20670;-74
2022/09/19 10:25:41;;;;;;;3.05;1.40;;;;;;;17.72;40.90;94456.06;5129473;28;20283;-73
2022/09/19 10:28:17;;;;;;;4.47;1.70;;;;;;;17.87;39.46;94451.50;5129660;27;20204;-74
2022/09/19 10:30:57;;;;;;;4.20;1.50;;;;;;;17.48;40.65;94440.94;5133753;27;20212;-73
2022/09/19 10:33:38;;;;;;;2.13;1.27;;;;;;;17.58;42.46;94444.94;5133365;27;20193;-73
2022/09/19 10:36:07;;;;;;;3.33;1.55;;;;;;;17.45;41.31;94451.84;5132482;27;20229;-73
2022/09/19 10:38:48;;;;;;;3.10;1.90;;;;;;;17.18;40.80;94438.25;5133052;27;20238;-73
2022/09/19 10:41:16;;;;;;;2.58;1.38;;;;;;;17.26;41.63;94444.59;5132540;27;20632;-73
2022/09/19 10:43:45;;;;;;;3.08;1.80;;;;;;;17.36;41.05;94427.47;5132681;27;20240;-74
2022/09/19 10:46:20;;;;;;;4.35;1.63;;;;;;;17.96;40.46;94410.84;5133069;27;20604;-74
2022/09/19 10:48:52;;;;;;;3.65;1.65;;;;;;;18.29;40.04;94396.22;5132980;27;20232;-74
2022/09/19 10:51:20;;;;;;;2.92;1.75;;;;;;;18.57;40.25;94395.59;5133272;27;20246;-74
2022/09/19 10:53:53;;;;;;;3.47;1.80;;;;;;;18.63;40.05;94400.34;5132652;27;20624;-73
2022/09/19 10:56:25;;;;;;;5.97;1.80;;;;;;;18.29;39.27;94393.47;5132597;27;20611;-73
2022/09/19 10:59:03;;;;;;;3.30;1.90;;;;;;;18.37;38.91;94393.13;5132821;27;20199;-73
2022/09/19 11:01:32;;;;;;;3.08;1.70;;;;;;;18.35;39.35;94395.47;5132541;27;20240;-73
2022/09/19 11:04:01;;;;;;;3.13;1.60;;;;;;;18.53;39.27;94381.06;5132319;27;20671;-73
2022/09/19 11:06:28;;;;;;;4.28;1.98;;;;;;;18.75;38.92;94391.00;5119630;27;20435;-72
2022/09/19 11:08:59;;;;;;;2.47;1.73;;;;;;;18.57;39.31;94379.94;5131861;27;20216;-73
2022/09/19 11:11:36;;;;;;;8.65;1.60;;;;;;;18.54;38.34;94369.72;5131959;27;20189;-72
2022/09/19 11:14:18;;;;;;;3.10;1.77;;;;;;;18.50;38.59;94368.13;5132503;27;20201;-73
2022/09/19 11:17:09;;;;;;;2.92;1.65;;;;;;;18.59;38.12;94366.63;5132084;27;20615;-72
2022/09/19 11:19:56;;;;;;;3.78;1.75;;;;;;;18.62;38.91;94359.59;5132019;27;20277;-74
2022/09/19 11:22:36;;;;;;;4.75;1.73;;;;;;;18.95;38.95;94356.59;5132221;27;20221;-74
2022/09/19 11:25:14;;;;;;;4.00;2.08;;;;;;;19.08;39.33;94368.78;5132201;27;20891;-74
2022/09/19 11:27:53;;;;;;;4.85;1.70;;;;;;;19.41;39.40;94350.41;5125886;27;20193;-74
2022/09/19 11:30:24;;;;;;;4.05;1.67;;;;;;;19.06;38.26;94359.38;5132493;27;20228;-74
2022/09/19 11:33:17;;;;;;;4.38;1.95;;;;;;;18.93;38.42;94352.66;5132168;27;20255;-73
2022/09/19 11:35:51;;;;;;;5.70;2.03;;;;;;;18.67;37.72;94353.75;5130759;27;20258;-73
2022/09/19 11:38:36;;;;;;;3.53;2.00;;;;;;;19.28;38.50;94352.75;5131995;27;20258;-72
2022/09/19 11:41:21;;;;;;;2.35;1.60;;;;;;;19.30;37.30;94344.09;5130810;27;20221;-72
2022/09/19 11:44:05;;;;;;;2.92;1.50;;;;;;;19.23;36.88;94344.91;5131852;27;20205;-72
2022/09/19 11:46:43;;;;;;;8.13;1.88;;;;;;;19.08;37.25;94333.09;5131290;27;20222;-75
2022/09/19 11:49:48;;;;;;;3.75;2.13;;;;;;;18.89;37.56;94336.16;5131857;27;20236;-73
2022/09/19 11:52:26;;;;;;;4.07;1.70;;;;;;;18.84;37.64;94335.78;5120548;27;20200;-71
2022/09/19 11:55:06;;;;;;;4.57;1.63;;;;;;;18.79;39.08;94334.97;5132010;27;20258;-73
2022/09/19 11:57:41;;;;;;;4.38;1.80;;;;;;;18.65;37.97;94339.59;5131743;27;20205;-74
2022/09/19 12:00:16;;;;;;;3.40;1.90;;;;;;;18.57;39.08;94335.25;5131820;27;20216;-72
2022/09/19 12:03:03;;;;;;;5.28;2.08;;;;;;;19.08;38.65;94330.34;5131864;27;20236;-72
2022/09/19 12:05:49;;;;;;;3.70;1.95;;;;;;;19.12;37.14;94322.91;5128976;27;20197;-72
2022/09/19 12:08:28;;;;;;;4.20;1.58;;;;;;;18.99;37.14;94337.41;5118188;27;20200;-71
2022/09/19 12:11:05;;;;;;;3.95;1.73;;;;;;;19.11;38.00;94321.34;5130885;27;20488;-74